Time;durP1;ratioP1;P1;durP2;ratioP2;P2;SDS_P1;SDS_P2;PMS_P1;PMS_P2;Temp;Humidity;BMP_temperature;BMP_pressure;BME280_temperature;BME280_humidity;BME280_pressure;Samples;Min_cycle;Max_cycle;Signal;HPM_P1;HPM_P2
2020/12/04 00:00:13;;;;;;;;;;;;;;;;;;5075435;28;7743;-93
2020/12/04 00:02:39;;;;;;;;;;;;;;;;;;5073599;28;4370;-92
2020/12/04 00:05:05;;;;;;;;;;;;;;;;;;5070999;28;8242;-91
2020/12/04 00:07:32;;;;;;;;;;;;;;;;;;5070878;28;7456;-93
2020/12/04 00:09:58;;;;;;;;;;;;;;;;;;5076634;28;9158;-93
2020/12/04 00:12:25;;;;;;;;;;;;;;;;;;5072816;28;7620;-93
2020/12/04 00:14:51;;;;;;;;;;;;;;;;;;5076080;28;4162;-93
2020/12/04 00:17:17;;;;;;;;;;;;;;;;;;5073689;28;9021;-93
2020/12/04 00:19:43;;;;;;;;;;;;;;;;;;5068135;28;9056;-92
2020/12/04 00:22:09;;;;;;;;;;;;;;;;;;5067175;28;8719;-91
2020/12/04 00:24:35;;;;;;;;;;;;;;;;;;5069285;28;10532;-92
2020/12/04 00:27:01;;;;;;;;;;;;;;;;;;5065171;28;7142;-92
2020/12/04 00:29:28;;;;;;;;;;;;;;;;;;5068625;28;9465;-92
2020/12/04 00:31:55;;;;;;;;;;;;;;;;;;5063535;28;9302;-92
2020/12/04 00:34:21;;;;;;;;;;;;;;;;;;5073695;28;9132;-93
2020/12/04 00:36:47;;;;;;;;;;;;;;;;;;5073619;28;8237;-91
2020/12/04 00:39:13;;;;;;;;;;;;;;;;;;5067955;28;9132;-93
2020/12/04 00:41:39;;;;;;;;;;;;;;;;;;5069526;28;3882;-92
2020/12/04 00:44:06;;;;;;;;;;;;;;;;;;5070513;28;8817;-92
2020/12/04 00:46:33;;;;;;;;;;;;;;;;;;5067940;28;9208;-93
2020/12/04 00:48:59;;;;;;;;;;;;;;;;;;5067589;28;7169;-92
2020/12/04 00:51:25;;;;;;;;;;;;;;;;;;5068542;28;8632;-91
2020/12/04 00:53:53;;;;;;;;;;;;;;;;;;5074561;28;4134;-92
2020/12/04 00:56:20;;;;;;;;;;;;;;;;;;5070380;28;9275;-92
2020/12/04 00:58:46;;;;;;;;;;;;;;;;;;5072123;28;9073;-90
2020/12/04 01:01:12;;;;;;;;;;;;;;;;;;5069894;28;9325;-91
2020/12/04 01:03:39;;;;;;;;;;;;;;;;;;5068480;28;9116;-91
2020/12/04 01:06:05;;;;;;;;;;;;;;;;;;5072694;28;8306;-91
2020/12/04 01:08:31;;;;;;;;;;;;;;;;;;5067032;28;7323;-93
2020/12/04 01:10:57;;;;;;;;;;;;;;;;;;5066499;28;9095;-92
2020/12/04 01:13:23;;;;;;;;;;;;;;;;;;5068494;28;7076;-92
2020/12/04 01:15:49;;;;;;;;;;;;;;;;;;5069845;28;7084;-92
2020/12/04 01:18:16;;;;;;;;;;;;;;;;;;5086249;28;7731;-93
2020/12/04 01:20:43;;;;;;;;;;;;;;;;;;5070693;28;4120;-92
2020/12/04 01:23:12;;;;;;;;;;;;;;;;;;5072186;28;9184;-93
2020/12/04 01:25:38;;;;;;;;;;;;;;;;;;5071524;28;7373;-90
2020/12/04 01:28:04;;;;;;;;;;;;;;;;;;5077554;28;9085;-91
2020/12/04 01:30:30;;;;;;;;;;;;;;;;;;5074394;28;8674;-92
2020/12/04 01:32:56;;;;;;;;;;;;;;;;;;5067995;28;7631;-87
2020/12/04 01:35:22;;;;;;;;;;;;;;;;;;5067653;28;9072;-92
2020/12/04 01:37:49;;;;;;;;;;;;;;;;;;5065458;28;10674;-89
2020/12/04 01:40:15;;;;;;;;;;;;;;;;;;5072671;28;9096;-91
2020/12/04 01:42:41;;;;;;;;;;;;;;;;;;5070049;28;7024;-91
2020/12/04 01:45:07;;;;;;;;;;;;;;;;;;5074099;28;9089;-88
2020/12/04 01:47:33;;;;;;;;;;;;;;;;;;5075464;28;7174;-94
2020/12/04 01:49:59;;;;;;;;;;;;;;;;;;5072965;28;8716;-91
2020/12/04 01:52:25;;;;;;;;;;;;;;;;;;5068109;28;11234;-89
2020/12/04 01:54:53;;;;;;;;;;;;;;;;;;5069828;28;9162;-89
2020/12/04 01:57:21;;;;;;;;;;;;;;;;;;5068029;28;7369;-93
2020/12/04 01:59:47;;;;;;;;;;;;;;;;;;5064834;28;4112;-92
2020/12/04 02:02:17;;;;;;;;;;;;;;;;;;5070619;28;9244;-93
2020/12/04 02:04:43;;;;;;;;;;;;;;;;;;5069739;28;8122;-92
2020/12/04 02:07:13;;;;;;;;;;;;;;;;;;5067117;28;7470;-92
2020/12/04 02:09:43;;;;;;;;;;;;;;;;;;5069275;28;9087;-91
2020/12/04 02:12:15;;;;;;;;;;;;;;;;;;5065379;28;8762;-92
2020/12/04 02:14:42;;;;;;;;;;;;;;;;;;5075046;28;4064;-92
2020/12/04 02:17:09;;;;;;;;;;;;;;;;;;5069711;28;7933;-91
2020/12/04 02:19:35;;;;;;;;;;;;;;;;;;5063243;28;9238;-92
2020/12/04 02:22:03;;;;;;;;;;;;;;;;;;5066928;28;8068;-91
2020/12/04 02:24:29;;;;;;;;;;;;;;;;;;5067136;28;9222;-92
2020/12/04 02:26:57;;;;;;;;;;;;;;;;;;5064096;28;4038;-93
2020/12/04 02:29:23;;;;;;;;;;;;;;;;;;5066572;28;9545;-92
2020/12/04 02:31:49;;;;;;;;;;;;;;;;;;5060903;28;9195;-92
2020/12/04 02:34:15;;;;;;;;;;;;;;;;;;5068733;28;9190;-93
2020/12/04 02:36:41;;;;;;;;;;;;;;;;;;5067527;28;7244;-92
2020/12/04 02:39:08;;;;;;;;;;;;;;;;;;5062838;28;8685;-92
2020/12/04 02:41:34;;;;;;;;;;;;;;;;;;5062166;28;7375;-90
2020/12/04 02:44:00;;;;;;;;;;;;;;;;;;5063779;28;8974;-92
2020/12/04 02:46:26;;;;;;;;;;;;;;;;;;5069236;28;9061;-91
2020/12/04 02:48:52;;;;;;;;;;;;;;;;;;5067621;28;9262;-91
2020/12/04 02:51:18;;;;;;;;;;;;;;;;;;5068107;28;9032;-92
2020/12/04 02:53:44;;;;;;;;;;;;;;;;;;5072566;28;3810;-92
2020/12/04 02:56:16;;;;;;;;;;;;;;;;;;5063497;28;9041;-92
2020/12/04 02:58:42;;;;;;;;;;;;;;;;;;5070814;28;9202;-93
2020/12/04 03:01:08;;;;;;;;;;;;;;;;;;5069006;28;8934;-92
2020/12/04 03:03:34;;;;;;;;;;;;;;;;;;5067055;28;9073;-92
2020/12/04 03:06:00;;;;;;;;;;;;;;;;;;5070770;28;10781;-92
2020/12/04 03:08:26;;;;;;;;;;;;;;;;;;5062421;28;11055;-92
2020/12/04 03:10:52;;;;;;;;;;;;;;;;;;5060953;28;9120;-92
2020/12/04 03:13:19;;;;;;;;;;;;;;;;;;5069035;28;5477;-92
2020/12/04 03:15:45;;;;;;;;;;;;;;;;;;5065192;28;9178;-93
2020/12/04 03:18:11;;;;;;;;;;;;;;;;;;5062540;28;9104;-86
2020/12/04 03:20:37;;;;;;;;;;;;;;;;;;5062267;28;3935;-93
2020/12/04 03:23:03;;;;;;;;;;;;;;;;;;5062036;28;9063;-91
2020/12/04 03:25:30;;;;;;;;;;;;;;;;;;5067163;28;11662;-91
2020/12/04 03:27:56;;;;;;;;;;;;;;;;;;5069296;28;7874;-92
2020/12/04 03:30:23;;;;;;;;;;;;;;;;;;5070103;28;7797;-93
2020/12/04 03:32:49;;;;;;;;;;;;;;;;;;5071375;28;3931;-90
2020/12/04 03:35:15;;;;;;;;;;;;;;;;;;5070335;28;8039;-90
2020/12/04 03:37:41;;;;;;;;;;;;;;;;;;5062850;28;7959;-92
2020/12/04 03:40:07;;;;;;;;;;;;;;;;;;5064465;28;9184;-91
2020/12/04 03:42:33;;;;;;;;;;;;;;;;;;5065728;28;9389;-91
2020/12/04 03:44:59;;;;;;;;;;;;;;;;;;5064004;28;9150;-93
2020/12/04 03:47:26;;;;;;;;;;;;;;;;;;5074980;28;9070;-92
2020/12/04 03:49:52;;;;;;;;;;;;;;;;;;5067856;28;9096;-91
2020/12/04 03:52:20;;;;;;;;;;;;;;;;;;5062264;28;9338;-91
2020/12/04 03:54:46;;;;;;;;;;;;;;;;;;5065004;28;10611;-91
2020/12/04 03:57:12;;;;;;;;;;;;;;;;;;5070575;28;9025;-93
2020/12/04 03:59:38;;;;;;;;;;;;;;;;;;5070257;28;4377;-89
2020/12/04 04:02:04;;;;;;;;;;;;;;;;;;5065663;28;8970;-90
2020/12/04 04:04:31;;;;;;;;;;;;;;;;;;5063642;28;9007;-93
2020/12/04 04:06:57;;;;;;;;;;;;;;;;;;5065735;28;9161;-92
2020/12/04 04:09:23;;;;;;;;;;;;;;;;;;5063615;28;9053;-90
2020/12/04 04:11:49;;;;;;;;;;;;;;;;;;5061796;28;4066;-92
2020/12/04 04:14:15;;;;;;;;;;;;;;;;;;5062071;28;9013;-92
2020/12/04 04:16:41;;;;;;;;;;;;;;;;;;5061837;28;9206;-92
2020/12/04 04:19:07;;;;;;;;;;;;;;;;;;5068863;28;9050;-89
2020/12/04 04:21:39;;;;;;;;;;;;;;;;;;5066785;28;9146;-92
2020/12/04 04:24:05;;;;;;;;;;;;;;;;;;5065828;28;9072;-91
2020/12/04 04:26:31;;;;;;;;;;;;;;;;;;5060497;28;7187;-92
2020/12/04 04:28:57;;;;;;;;;;;;;;;;;;5060003;28;9175;-92
2020/12/04 04:31:23;;;;;;;;;;;;;;;;;;5066829;28;8657;-91
2020/12/04 04:33:49;;;;;;;;;;;;;;;;;;5081233;28;10925;-91
2020/12/04 04:36:15;;;;;;;;;;;;;;;;;;5069212;28;8911;-91
2020/12/04 04:38:42;;;;;;;;;;;;;;;;;;5070151;28;4204;-93
2020/12/04 04:41:08;;;;;;;;;;;;;;;;;;5060501;28;9247;-93
2020/12/04 04:43:34;;;;;;;;;;;;;;;;;;5062603;28;9282;-93
2020/12/04 04:46:05;;;;;;;;;;;;;;;;;;5066095;28;9203;-92
2020/12/04 04:48:33;;;;;;;;;;;;;;;;;;5068324;28;9136;-91
2020/12/04 04:50:59;;;;;;;;;;;;;;;;;;5069623;28;8147;-91
2020/12/04 04:53:26;;;;;;;;;;;;;;;;;;5071421;28;7154;-93
2020/12/04 04:55:55;;;;;;;;;;;;;;;;;;5073433;28;8567;-91
2020/12/04 04:58:21;;;;;;;;;;;;;;;;;;5071709;28;8293;-93
2020/12/04 05:00:47;;;;;;;;;;;;;;;;;;5069744;28;7853;-92
2020/12/04 05:03:13;;;;;;;;;;;;;;;;;;5077069;28;8308;-89
2020/12/04 05:05:42;;;;;;;;;;;;;;;;;;5070285;28;4056;-92
2020/12/04 05:08:15;;;;;;;;;;;;;;;;;;5071417;28;7028;-92
2020/12/04 05:10:41;;;;;;;;;;;;;;;;;;5068430;28;9048;-92
2020/12/04 05:13:08;;;;;;;;;;;;;;;;;;5060007;28;8960;-90
2020/12/04 05:15:34;;;;;;;;;;;;;;;;;;5068552;28;9052;-91
2020/12/04 05:18:02;;;;;;;;;;;;;;;;;;5070216;28;7582;-92
2020/12/04 05:20:28;;;;;;;;;;;;;;;;;;5062748;28;9538;-92
2020/12/04 05:22:55;;;;;;;;;;;;;;;;;;5072122;28;9318;-93
2020/12/04 05:25:21;;;;;;;;;;;;;;;;;;5069630;28;7121;-92
2020/12/04 05:27:47;;;;;;;;;;;;;;;;;;5069250;28;10832;-92
2020/12/04 05:30:23;;;;;;;;;;;;;;;;;;5065754;28;7662;-90
2020/12/04 05:32:57;;;;;;;;;;;;;;;;;;5083791;28;4139;-91
2020/12/04 05:35:24;;;;;;;;;;;;;;;;;;5059294;28;9209;-91
2020/12/04 05:37:50;;;;;;;;;;;;;;;;;;5062806;28;9213;-90
2020/12/04 05:40:22;;;;;;;;;;;;;;;;;;5068387;28;9162;-92
2020/12/04 05:42:48;;;;;;;;;;;;;;;;;;5068632;28;9058;-90
2020/12/04 05:45:14;;;;;;;;;;;;;;;;;;5076461;28;9136;-92
2020/12/04 05:47:43;;;;;;;;;;;;;;;;;;5070531;28;4196;-90
2020/12/04 05:50:10;;;;;;;;;;;;;;;;;;5068026;28;9269;-93
2020/12/04 05:52:36;;;;;;;;;;;;;;;;;;5069262;28;7711;-92
2020/12/04 05:55:03;;;;;;;;;;;;;;;;;;5070002;28;7665;-91
2020/12/04 05:57:30;;;;;;;;;;;;;;;;;;5066433;28;8653;-86
2020/12/04 05:59:56;;;;;;;;;;;;;;;;;;5069393;28;3687;-91
2020/12/04 06:02:22;;;;;;;;;;;;;;;;;;5068408;28;9235;-88
2020/12/04 06:04:52;;;;;;;;;;;;;;;;;;5063123;28;7713;-86
2020/12/04 06:07:20;;;;;;;;;;;;;;;;;;5061635;28;9171;-90
2020/12/04 06:09:46;;;;;;;;;;;;;;;;;;5067602;28;8797;-91
2020/12/04 06:12:13;;;;;;;;;;;;;;;;;;5072486;28;9199;-91
2020/12/04 06:14:39;;;;;;;;;;;;;;;;;;5068898;28;4057;-92
2020/12/04 06:17:12;;;;;;;;;;;;;;;;;;5062702;28;9140;-88
2020/12/04 06:19:38;;;;;;;;;;;;;;;;;;5060057;28;9204;-90
2020/12/04 06:22:06;;;;;;;;;;;;;;;;;;5065725;28;8074;-90
2020/12/04 06:24:33;;;;;;;;;;;;;;;;;;5063731;28;9273;-92
2020/12/04 06:26:59;;;;;;;;;;;;;;;;;;5071935;28;3818;-91
2020/12/04 06:29:25;;;;;;;;;;;;;;;;;;5061797;28;10804;-92
2020/12/04 06:31:51;;;;;;;;;;;;;;;;;;5063922;28;9296;-93
2020/12/04 06:34:18;;;;;;;;;;;;;;;;;;5061535;28;9290;-92
2020/12/04 06:36:44;;;;;;;;;;;;;;;;;;5064501;28;9337;-92
2020/12/04 06:39:27;;;;;;;;;;;;;;;;;;5059279;28;7594;-92
2020/12/04 06:41:53;;;;;;;;;;;;;;;;;;5065431;28;4392;-92
2020/12/04 06:44:20;;;;;;;;;;;;;;;;;;5070026;28;9065;-91
2020/12/04 06:46:47;;;;;;;;;;;;;;;;;;5064693;28;9177;-91
2020/12/04 06:49:34;;;;;;;;;;;;;;;;;;5064663;28;8394;-90
2020/12/04 06:52:02;;;;;;;;;;;;;;;;;;5064939;28;7065;-92
2020/12/04 06:54:29;;;;;;;;;;;;;;;;;;5073257;28;7623;-90
2020/12/04 06:56:56;;;;;;;;;;;;;;;;;;5064553;28;4104;-92
2020/12/04 06:59:22;;;;;;;;;;;;;;;;;;5069783;28;8348;-90
2020/12/04 07:01:48;;;;;;;;;;;;;;;;;;5058612;28;10566;-92
2020/12/04 07:04:15;;;;;;;;;;;;;;;;;;5068382;28;8204;-92
2020/12/04 07:06:41;;;;;;;;;;;;;;;;;;5080340;28;9235;-92
2020/12/04 07:09:07;;;;;;;;;;;;;;;;;;5063913;28;7720;-93
2020/12/04 07:11:34;;;;;;;;;;;;;;;;;;5070392;28;3876;-91
2020/12/04 07:14:00;;;;;;;;;;;;;;;;;;5067556;28;7418;-94
2020/12/04 07:16:27;;;;;;;;;;;;;;;;;;5067456;28;8367;-94
2020/12/04 07:18:53;;;;;;;;;;;;;;;;;;5077061;28;7584;-94
2020/12/04 07:21:20;;;;;;;;;;;;;;;;;;5069302;28;8521;-92
2020/12/04 07:23:46;;;;;;;;;;;;;;;;;;5071704;28;4046;-90
2020/12/04 07:26:13;;;;;;;;;;;;;;;;;;5063954;28;9075;-89
2020/12/04 07:28:40;;;;;;;;;;;;;;;;;;5058818;28;10521;-90
2020/12/04 07:31:13;;;;;;;;;;;;;;;;;;5063322;28;7590;-93
2020/12/04 07:33:48;;;;;;;;;;;;;;;;;;5062717;28;9209;-92
2020/12/04 07:36:14;;;;;;;;;;;;;;;;;;5069088;28;7955;-92
2020/12/04 07:38:48;;;;;;;;;;;;;;;;;;5069543;28;3861;-91
2020/12/04 07:41:21;;;;;;;;;;;;;;;;;;5058371;28;9040;-92
2020/12/04 07:43:49;;;;;;;;;;;;;;;;;;5058142;28;9178;-91
2020/12/04 07:46:18;;;;;;;;;;;;;;;;;;5063561;28;9197;-92
2020/12/04 07:48:57;;;;;;;;;;;;;;;;;;5064821;28;8847;-91
2020/12/04 07:51:25;;;;;;;;;;;;;;;;;;5069910;28;6271;-91
2020/12/04 07:53:52;;;;;;;;;;;;;;;;;;5066295;28;3898;-88
2020/12/04 07:56:18;;;;;;;;;;;;;;;;;;5068481;28;10483;-90
2020/12/04 07:58:45;;;;;;;;;;;;;;;;;;5068160;28;9057;-90
2020/12/04 08:01:12;;;;;;;;;;;;;;;;;;5072800;28;10591;-89
2020/12/04 08:03:38;;;;;;;;;;;;;;;;;;5068458;28;10486;-90
2020/12/04 08:06:07;;;;;;;;;;;;;;;;;;5067021;28;9116;-92
2020/12/04 08:08:33;;;;;;;;;;;;;;;;;;5065299;28;10637;-91
2020/12/04 08:11:07;;;;;;;;;;;;;;;;;;5064116;28;7736;-88
2020/12/04 08:13:33;;;;;;;;;;;;;;;;;;5062227;28;10480;-90
2020/12/04 08:15:59;;;;;;;;;;;;;;;;;;5062122;28;9269;-91
2020/12/04 08:18:27;;;;;;;;;;;;;;;;;;5061535;28;9071;-89
2020/12/04 08:21:03;;;;;;;;;;;;;;;;;;5066773;28;3709;-90
2020/12/04 08:23:29;;;;;;;;;;;;;;;;;;5067101;28;8944;-84
2020/12/04 08:25:55;;;;;;;;;;;;;;;;;;5069763;28;7432;-86
2020/12/04 08:28:21;;;;;;;;;;;;;;;;;;5068908;28;10433;-86
2020/12/04 08:30:47;;;;;;;;;;;;;;;;;;5070760;28;10754;-87
2020/12/04 08:33:13;;;;;;;;;;;;;;;;;;5073378;28;10538;-89
2020/12/04 08:35:42;;;;;;;;;;;;;;;;;;5075889;28;9495;-89
2020/12/04 08:38:08;;;;;;;;;;;;;;;;;;5059923;28;10389;-87
2020/12/04 08:40:35;;;;;;;;;;;;;;;;;;5064806;28;10058;-90
2020/12/04 08:43:08;;;;;;;;;;;;;;;;;;5068625;28;9280;-88
2020/12/04 08:45:34;;;;;;;;;;;;;;;;;;5066555;28;9032;-87
2020/12/04 08:48:06;;;;;;;;;;;;;;;;;;5068107;28;3932;-86
2020/12/04 09:27:37;;;;;;;;;;;;;;;;;;6233452;22;2010;-82
2020/12/04 09:30:04;;;;;;;;;;;;;;;;;;6282503;22;1655;-83
2020/12/04 09:32:30;;;;;;;;;;;;;;;;;;6282487;22;1070;-84
2020/12/04 09:34:57;;;;;;;;;;;;;;;;;;6281871;22;1195;-83
2020/12/04 09:42:34;;;;;;;;;;;;;;;;;;6269392;22;1979;-82
2020/12/04 09:45:02;;;;;;;;;;;;;;;;;;6280886;23;1043;-82
2020/12/04 09:47:30;;;;;;;;;;;;;;;;;;6281816;22;1137;-82
2020/12/04 09:49:57;;;;;;;;;;;;;;;;;;6282017;23;1183;-83
2020/12/04 09:52:23;;;;;;;;;;;;;;;;;;6281721;22;1339;-81
2020/12/04 09:54:50;;;;;;;;;;;;;;;;;;6280938;23;1347;-82
2020/12/04 10:05:33;;;;;;;;;;;;;;;;;;6213479;23;1671;-83
2020/12/04 10:11:18;;;;;;;;;;;;;;;;;;6012813;24;1031;-83
2020/12/04 10:14:06;;;;;;;;;;;;;;;;;;5982489;24;1094;-81
2020/12/04 10:17:16;;;;;;;;;;;;;;;;;;6002117;24;1600;-83
2020/12/04 10:19:54;;;;;;;;;;;;;;;;;;6005693;24;1352;-84
2020/12/04 10:22:55;;;;;;;;;;;;;;;;;;5939728;24;1923;-82
2020/12/04 10:25:23;;;;;;;;;;;;;;;;;;6008642;24;1267;-83
2020/12/04 10:34:28;;;;;;;;;;;;;;;;;;5870577;24;1105;-82
2020/12/04 10:52:51;;;;;;;;;;;;;;;;;;5773186;24;1310;-82
2020/12/04 10:55:43;;;;;;;;;;;;;;;;;;5787740;24;1083;-82
2020/12/04 11:01:31;;;;;;;;;;;;;;;;;;5780058;24;1177;-81
2020/12/04 11:06:42;;;;;;;;;;;;;;;;;;5837159;24;1175;-81
2020/12/04 11:09:08;;;;;;;;;;;;;;;;;;5886709;24;1428;-82
2020/12/04 11:11:35;;;;;;;;;;;;;;;;;;5882907;24;1244;-82
2020/12/04 11:14:02;;;;;;;;;;;;;;;;;;5994920;23;1308;-81
2020/12/04 11:16:40;;;;;;;;;;;;;;;;;;6126559;23;1048;-82
2020/12/04 11:19:10;;;;;;;;;;;;;;;;;;6199469;23;1122;-82
2020/12/04 11:21:41;;;;;;;;;;;;;;;;;;6199349;23;1940;-82
2020/12/04 11:24:08;;;;;;;;;;;;;;;;;;6196289;23;1182;-81
2020/12/04 11:26:40;;;;;;;;;;;;;;;;;;6196458;23;1173;-82
2020/12/04 11:29:14;;;;;;;;;;;;;;;;;;6197440;23;1517;-81
2020/12/04 11:31:41;;;;;;;;;;;;;;;;;;6198406;23;1225;-82
2020/12/04 11:34:11;;;;;;;;;;;;;;;;;;6198164;23;1403;-82
2020/12/04 11:36:43;;;;;;;;;;;;;;;;;;6198350;23;1080;-82
2020/12/04 11:39:13;;;;;;;;;;;;;;;;;;6198327;23;1653;-82
2020/12/04 11:41:41;;;;;;;;;;;;;;;;;;6201067;23;1870;-82
2020/12/04 11:44:09;;;;;;;;;;;;;;;;;;6201377;23;1433;-82
2020/12/04 11:46:36;;;;;;;;;;;;;;;;;;6194455;23;1223;-81
2020/12/04 11:49:04;;;;;;;;;;;;;;;;;;6192960;23;1508;-82
2020/12/04 11:51:31;;;;;;;;;;;;;;;;;;6190214;23;1072;-80
2020/12/04 11:53:58;;;;;;;;;;;;;;;;;;6192060;23;1055;-80
2020/12/04 11:56:28;;;;;;;;;;;;;;;;;;6191844;23;1101;-82
2020/12/04 11:58:54;;;;;;;;;;;;;;;;;;6193890;23;1483;-81
2020/12/04 12:01:25;;;;;;;;;;;;;;;;;;6194932;23;1330;-81
2020/12/04 12:03:54;;;;;;;;;;;;;;;;;;6193860;23;1948;-81
2020/12/04 12:06:23;;;;;;;;;;;;;;;;;;6193133;23;1052;-82
2020/12/04 12:11:36;;;;;;;;;;;;;;;;;;6197008;23;1473;-84
2020/12/04 12:14:03;;;;;;;;;;;;;;;;;;6200662;23;1185;-82
2020/12/04 12:16:36;;;;;;;;;;;;;;;;;;6201869;23;1051;-82
2020/12/04 12:19:13;;;;;;;;;;;;;;;;;;6199602;23;1099;-81
2020/12/04 12:21:42;;;;;;;;;;;;;;;;;;6198020;23;1893;-82
2020/12/04 12:24:09;;;;;;;;;;;;;;;;;;6193252;23;1111;-81
2020/12/04 12:26:46;;;;;;;;;;;;;;;;;;6191339;23;1341;-82
2020/12/04 12:32:07;;;;;;;;;;;;;;;;;;6201390;23;1539;-81
2020/12/04 12:45:39;;;;;;;;;;;;;;;;;;6153144;23;1490;-82
2020/12/04 12:48:33;;;;;;;;;;;;;;;;;;6201527;23;1702;-82
2020/12/04 12:57:23;;;;;;;;;;;;;;;;;;6203628;23;1640;-82
2020/12/04 12:59:53;;;;;;;;;;;;;;;;;;6198912;23;1640;-81
2020/12/04 13:02:24;;;;;;;;;;;;;;;;;;6194225;23;1893;-82
2020/12/04 13:04:54;;;;;;;;;;;;;;;;;;6197559;23;1310;-82
2020/12/04 13:07:22;;;;;;;;;;;;;;;;;;6194118;23;1095;-82
2020/12/04 13:09:54;;;;;;;;;;;;;;;;;;6195311;23;1099;-81
2020/12/04 13:12:24;;;;;;;;;;;;;;;;;;6198016;23;1266;-81
2020/12/04 13:14:50;;;;;;;;;;;;;;;;;;6197432;23;1649;-82
2020/12/04 13:17:18;;;;;;;;;;;;;;;;;;6194821;23;1082;-80
2020/12/04 13:19:47;;;;;;;;;;;;;;;;;;6196043;23;1576;-80
2020/12/04 13:22:16;;;;;;;;;;;;;;;;;;6174852;23;1929;-82
2020/12/04 13:24:43;;;;;;;;;;;;;;;;;;6201477;23;1625;-82
2020/12/04 13:27:13;;;;;;;;;;;;;;;;;;6199385;23;944;-82
2020/12/04 13:29:42;;;;;;;;;;;;;;;;;;6194655;23;1514;-82
2020/12/04 13:32:09;;;;;;;;;;;;;;;;;;6191950;23;1206;-80
2020/12/04 13:34:38;;;;;;;;;;;;;;;;;;6191321;23;1681;-81
2020/12/04 13:37:05;;;;;;;;;;;;;;;;;;6189965;23;1510;-81
2020/12/04 13:39:31;;;;;;;;;;;;;;;;;;6190540;23;1218;-80
2020/12/04 13:41:58;;;;;;;;;;;;;;;;;;6188728;23;1927;-81
2020/12/04 13:44:25;;;;;;;;;;;;;;;;;;6188840;23;1031;-81
2020/12/04 13:46:51;;;;;;;;;;;;;;;;;;6188839;23;1057;-80
2020/12/04 13:49:18;;;;;;;;;;;;;;;;;;6191272;23;999;-81
2020/12/04 13:51:44;;;;;;;;;;;;;;;;;;6192697;23;1095;-82
2020/12/04 13:54:11;;;;;;;;;;;;;;;;;;6192869;23;1023;-81
2020/12/04 13:56:37;;;;;;;;;;;;;;;;;;6195660;23;1015;-82
2020/12/04 13:59:05;;;;;;;;;;;;;;;;;;6200483;23;1086;-82
2020/12/04 14:01:38;;;;;;;;;;;;;;;;;;6205201;23;1101;-82
2020/12/04 14:04:06;;;;;;;;;;;;;;;;;;6200194;23;1888;-81
2020/12/04 14:12:07;;;;;;;;;;;;;;;;;;6205913;23;1467;-82
2020/12/04 14:14:50;;;;;;;;;;;;;;;;;;6204785;23;1413;-82
2020/12/04 14:17:29;;;;;;;;;;;;;;;;;;6201126;23;1128;-82
2020/12/04 14:19:57;;;;;;;;;;;;;;;;;;6204595;23;1103;-82
2020/12/04 14:22:24;;;;;;;;;;;;;;;;;;6203043;23;1869;-82
2020/12/04 14:25:00;;;;;;;;;;;;;;;;;;6175693;23;1139;-82
2020/12/04 14:27:26;;;;;;;;;;;;;;;;;;6198791;23;1391;-82
2020/12/04 14:29:58;;;;;;;;;;;;;;;;;;6200016;23;1093;-82
2020/12/04 14:32:28;;;;;;;;;;;;;;;;;;6195981;23;1615;-81
2020/12/04 14:35:10;;;;;;;;;;;;;;;;;;6196228;23;1779;-81
2020/12/04 14:37:39;;;;;;;;;;;;;;;;;;6197465;23;1395;-82
2020/12/04 14:42:50;;;;;;;;;;;;;;;;;;6193056;23;1897;-81
2020/12/04 14:45:17;;;;;;;;;;;;;;;;;;6192710;23;1023;-82
2020/12/04 14:47:44;;;;;;;;;;;;;;;;;;6197173;23;949;-83
2020/12/04 14:50:13;;;;;;;;;;;;;;;;;;6203037;23;1094;-81
2020/12/04 14:52:45;;;;;;;;;;;;;;;;;;6197757;23;1112;-81
2020/12/04 14:55:15;;;;;;;;;;;;;;;;;;6199706;23;1080;-81
2020/12/04 14:57:43;;;;;;;;;;;;;;;;;;6203152;23;1255;-82
2020/12/04 15:00:11;;;;;;;;;;;;;;;;;;6198022;23;1079;-82
2020/12/04 15:02:41;;;;;;;;;;;;;;;;;;6198761;23;1896;-81
2020/12/04 15:05:16;;;;;;;;;;;;;;;;;;6197204;23;1051;-81
2020/12/04 15:07:43;;;;;;;;;;;;;;;;;;6196206;23;1098;-81
2020/12/04 15:10:10;;;;;;;;;;;;;;;;;;6196455;23;1110;-83
2020/12/04 15:12:40;;;;;;;;;;;;;;;;;;6196245;23;1759;-80
2020/12/04 15:15:08;;;;;;;;;;;;;;;;;;6196734;23;1162;-82
2020/12/04 15:17:38;;;;;;;;;;;;;;;;;;6196939;23;1363;-82
2020/12/04 15:20:07;;;;;;;;;;;;;;;;;;6198439;23;1521;-81
2020/12/04 15:22:40;;;;;;;;;;;;;;;;;;6200105;23;1905;-81
2020/12/04 15:25:16;;;;;;;;;;;;;;;;;;6196807;23;1179;-81
2020/12/04 15:27:43;;;;;;;;;;;;;;;;;;6194900;23;1186;-82
2020/12/04 15:30:12;;;;;;;;;;;;;;;;;;6195954;23;1043;-81
2020/12/04 15:32:42;;;;;;;;;;;;;;;;;;6194453;23;1537;-81
2020/12/04 15:35:09;;;;;;;;;;;;;;;;;;6194165;23;1143;-80
2020/12/04 15:37:37;;;;;;;;;;;;;;;;;;6191047;23;1160;-81
2020/12/04 15:40:07;;;;;;;;;;;;;;;;;;6190372;23;1067;-83
2020/12/04 15:42:39;;;;;;;;;;;;;;;;;;6194734;23;1905;-81
2020/12/04 15:45:09;;;;;;;;;;;;;;;;;;6196473;23;1168;-81
2020/12/04 15:47:35;;;;;;;;;;;;;;;;;;6194412;23;1109;-81
2020/12/04 15:50:02;;;;;;;;;;;;;;;;;;6197168;23;1661;-81
2020/12/04 15:52:28;;;;;;;;;;;;;;;;;;6194370;23;1469;-81
2020/12/04 15:55:06;;;;;;;;;;;;;;;;;;6199426;23;1127;-82
2020/12/04 15:57:34;;;;;;;;;;;;;;;;;;6194123;23;1329;-82
2020/12/04 16:00:01;;;;;;;;;;;;;;;;;;6193211;23;1438;-82
2020/12/04 16:02:31;;;;;;;;;;;;;;;;;;6192756;23;1944;-81
2020/12/04 16:04:59;;;;;;;;;;;;;;;;;;6193789;23;1119;-80
2020/12/04 16:07:26;;;;;;;;;;;;;;;;;;6191807;23;1075;-81
2020/12/04 16:10:09;;;;;;;;;;;;;;;;;;6186538;23;1291;-82
2020/12/04 16:12:37;;;;;;;;;;;;;;;;;;6196623;23;1494;-81
2020/12/04 16:15:06;;;;;;;;;;;;;;;;;;6202276;23;1755;-82
2020/12/04 16:17:34;;;;;;;;;;;;;;;;;;6201472;23;1289;-82
2020/12/04 16:20:02;;;;;;;;;;;;;;;;;;6203464;23;1138;-82
2020/12/04 16:22:39;;;;;;;;;;;;;;;;;;6195093;23;1925;-82
2020/12/04 16:28:04;;;;;;;;;;;;;;;;;;6193298;23;1122;-82
2020/12/04 16:30:32;;;;;;;;;;;;;;;;;;6203552;23;1600;-82
2020/12/04 16:38:35;;;;;;;;;;;;;;;;;;6195341;23;1702;-81
2020/12/04 16:41:03;;;;;;;;;;;;;;;;;;6188208;23;1303;-81
2020/12/04 16:43:32;;;;;;;;;;;;;;;;;;6189251;23;1960;-81
2020/12/04 16:45:58;;;;;;;;;;;;;;;;;;6189702;23;1232;-81
2020/12/04 16:48:26;;;;;;;;;;;;;;;;;;6189431;23;1173;-82
2020/12/04 16:50:53;;;;;;;;;;;;;;;;;;6187089;23;1118;-80
2020/12/04 16:53:20;;;;;;;;;;;;;;;;;;6185981;23;1091;-81
2020/12/04 16:55:47;;;;;;;;;;;;;;;;;;6188894;23;1200;-81
2020/12/04 16:58:14;;;;;;;;;;;;;;;;;;6188985;23;1203;-81
2020/12/04 17:00:42;;;;;;;;;;;;;;;;;;6187959;23;1040;-81
2020/12/04 17:03:09;;;;;;;;;;;;;;;;;;6189723;23;1905;-80
2020/12/04 17:05:36;;;;;;;;;;;;;;;;;;6184494;23;1301;-80
2020/12/04 17:08:03;;;;;;;;;;;;;;;;;;6186852;23;1405;-80
2020/12/04 17:10:30;;;;;;;;;;;;;;;;;;6187047;23;1074;-82
2020/12/04 17:12:57;;;;;;;;;;;;;;;;;;6185702;23;1085;-80
2020/12/04 17:15:24;;;;;;;;;;;;;;;;;;6184370;23;1130;-79
2020/12/04 17:17:52;;;;;;;;;;;;;;;;;;6185748;23;1073;-81
2020/12/04 17:20:18;;;;;;;;;;;;;;;;;;6185147;23;1027;-80
2020/12/04 17:22:49;;;;;;;;;;;;;;;;;;6186128;23;1936;-80
2020/12/04 17:25:18;;;;;;;;;;;;;;;;;;6188117;23;1066;-82
2020/12/04 17:27:44;;;;;;;;;;;;;;;;;;6188420;23;1182;-81
2020/12/04 17:30:11;;;;;;;;;;;;;;;;;;6186322;23;1100;-81
2020/12/04 17:32:38;;;;;;;;;;;;;;;;;;6189420;23;1073;-80
2020/12/04 17:35:07;;;;;;;;;;;;;;;;;;6188230;23;1160;-79
2020/12/04 17:37:33;;;;;;;;;;;;;;;;;;6185613;23;1081;-81
2020/12/04 17:39:59;;;;;;;;;;;;;;;;;;6185097;23;1131;-81
2020/12/04 17:42:26;;;;;;;;;;;;;;;;;;6182140;23;10077;-80
2020/12/04 17:44:57;;;;;;;;;;;;;;;;;;6189544;23;1138;-81
2020/12/04 17:47:23;;;;;;;;;;;;;;;;;;6188982;23;10620;-80
2020/12/04 17:49:50;;;;;;;;;;;;;;;;;;6150287;23;97774;-81
2020/12/04 17:52:19;;;;;;;;;;;;;;;;;;6159047;23;1071;-81
2020/12/04 17:54:49;;;;;;;;;;;;;;;;;;6155787;23;1087;-81
2020/12/04 17:57:16;;;;;;;;;;;;;;;;;;6155402;23;1106;-82
2020/12/04 17:59:42;;;;;;;;;;;;;;;;;;6156695;23;1139;-82
2020/12/04 18:02:09;;;;;;;;;;;;;;;;;;6158036;23;1154;-81
2020/12/04 18:04:36;;;;;;;;;;;;;;;;;;6158097;23;1897;-81
2020/12/04 18:07:02;;;;;;;;;;;;;;;;;;6160028;23;1134;-80
2020/12/04 18:09:29;;;;;;;;;;;;;;;;;;6156436;23;1158;-78
2020/12/04 18:11:59;;;;;;;;;;;;;;;;;;6151120;23;1583;-79
2020/12/04 18:14:26;;;;;;;;;;;;;;;;;;6151386;23;1142;-79
2020/12/04 18:16:53;;;;;;;;;;;;;;;;;;6151311;23;1150;-80
2020/12/04 18:19:19;;;;;;;;;;;;;;;;;;6152599;23;1064;-79
2020/12/04 18:21:47;;;;;;;;;;;;;;;;;;6152171;23;1094;-80
2020/12/04 18:24:13;;;;;;;;;;;;;;;;;;6152197;23;1949;-79
2020/12/04 18:26:40;;;;;;;;;;;;;;;;;;6153188;23;1271;-80
2020/12/04 18:29:07;;;;;;;;;;;;;;;;;;6149927;23;1076;-79
2020/12/04 18:31:35;;;;;;;;;;;;;;;;;;6151163;23;1149;-79
2020/12/04 18:34:02;;;;;;;;;;;;;;;;;;6152016;23;1110;-81
2020/12/04 18:36:29;;;;;;;;;;;;;;;;;;6151718;23;1091;-81
2020/12/04 18:38:56;;;;;;;;;;;;;;;;;;6152556;23;1357;-80
2020/12/04 18:41:23;;;;;;;;;;;;;;;;;;6174506;23;1392;-80
2020/12/04 18:43:51;;;;;;;;;;;;;;;;;;6151922;23;1956;-80
2020/12/04 18:46:18;;;;;;;;;;;;;;;;;;6151460;23;1080;-79
2020/12/04 18:48:46;;;;;;;;;;;;;;;;;;6149870;23;1078;-80
2020/12/04 18:51:12;;;;;;;;;;;;;;;;;;6150707;23;1056;-79
2020/12/04 18:53:39;;;;;;;;;;;;;;;;;;6151390;23;1074;-80
2020/12/04 18:56:06;;;;;;;;;;;;;;;;;;6151768;23;1159;-80
2020/12/04 18:58:33;;;;;;;;;;;;;;;;;;6153752;23;1126;-79
2020/12/04 19:01:02;;;;;;;;;;;;;;;;;;6152241;23;1113;-81
2020/12/04 19:03:29;;;;;;;;;;;;;;;;;;6152592;23;1956;-79
2020/12/04 19:05:56;;;;;;;;;;;;;;;;;;6150303;23;1091;-80
2020/12/04 19:08:22;;;;;;;;;;;;;;;;;;6152988;23;1164;-79